createdAt,value
2019-01-19T00:00:25.126Z,26.37
2019-01-19T00:02:56.652Z,28.65
2019-01-19T00:05:36.200Z,26.17
2019-01-19T00:07:47.003Z,33.75
2019-01-19T00:10:19.996Z,30.88
2019-01-19T00:12:59.719Z,24.10
2019-01-19T00:15:07.000Z,29.70
2019-01-19T00:17:35.621Z,28.02
2019-01-19T00:20:27.164Z,27.40
2019-01-19T00:23:05.603Z,24.32
2019-01-19T00:25:46.960Z,29.42
2019-01-19T00:28:02.057Z,23.95
2019-01-19T00:30:33.312Z,36.98
2019-01-19T00:33:18.204Z,26.65
2019-01-19T00:36:01.316Z,31.50
2019-01-19T00:38:36.704Z,27.77
2019-01-19T00:41:06.483Z,30.23
2019-01-19T00:43:15.764Z,30.12
2019-01-19T00:45:41.818Z,36.10
2019-01-19T00:48:12.987Z,36.77
2019-01-19T00:50:35.092Z,29.95
2019-01-19T00:52:44.273Z,34.40
2019-01-19T00:55:18.075Z,30.25
2019-01-19T00:57:53.083Z,32.45
2019-01-19T00:59:59.004Z,33.80
2019-01-19T01:02:10.080Z,27.45
2019-01-19T01:04:38.516Z,29.92
2019-01-19T01:07:12.983Z,30.68
2019-01-19T01:09:53.407Z,33.67
2019-01-19T01:12:37.224Z,34.35
2019-01-19T01:15:25.400Z,36.23
2019-01-19T01:17:36.827Z,38.78
2019-01-19T01:20:19.009Z,35.50
2019-01-19T01:23:05.856Z,35.15
2019-01-19T01:25:45.315Z,27.87
2019-01-19T01:28:40.959Z,33.67
2019-01-19T01:30:51.308Z,32.42
2019-01-19T01:33:15.504Z,30.20
2019-01-19T01:35:46.789Z,27.70
2019-01-19T01:37:55.724Z,28.92
2019-01-19T01:40:28.881Z,34.23
2019-01-19T01:42:55.296Z,41.70
2019-01-19T01:45:37.945Z,34.25
2019-01-19T01:47:55.572Z,33.67
2019-01-19T01:50:17.587Z,33.42
2019-01-19T01:53:01.131Z,41.02
2019-01-19T01:55:14.387Z,31.45
2019-01-19T01:57:21.456Z,27.10
2019-01-19T01:59:51.788Z,36.98
2019-01-19T02:02:33.973Z,36.08
2019-01-19T02:05:22.776Z,27.42
2019-01-19T02:07:50.704Z,26.70
2019-01-19T02:10:29.868Z,29.45
2019-01-19T02:12:41.372Z,27.85
2019-01-19T02:14:58.537Z,29.27
2019-01-19T02:17:34.292Z,27.48
2019-01-19T02:19:59.331Z,32.42
2019-01-19T02:22:19.407Z,33.38
2019-01-19T02:24:52.616Z,32.78
2019-01-19T02:27:32.604Z,32.58
2019-01-19T02:29:48.100Z,30.17
2019-01-19T02:32:04.792Z,37.50
2019-01-19T02:34:32.333Z,39.58
2019-01-19T02:37:26.893Z,31.48
2019-01-19T02:40:00.386Z,32.25
2019-01-19T02:42:37.249Z,27.98
2019-01-19T02:45:21.680Z,29.95
2019-01-19T02:47:33.595Z,34.90
2019-01-19T02:50:24.412Z,38.65
2019-01-19T02:52:57.855Z,29.60
2019-01-19T02:55:17.321Z,27.95
2019-01-19T02:57:54.784Z,26.73
2019-01-19T03:00:31.220Z,29.82
2019-01-19T03:03:08.898Z,27.05
2019-01-19T03:05:56.179Z,38.17
2019-01-19T03:08:41.476Z,37.33
2019-01-19T03:11:05.876Z,30.62
2019-01-19T03:13:43.653Z,34.15
2019-01-19T03:16:42.261Z,28.42
2019-01-19T03:18:56.121Z,30.85
2019-01-19T03:21:41.944Z,31.45
2019-01-19T03:24:06.873Z,38.25
2019-01-19T03:26:52.128Z,28.65
2019-01-19T03:29:33.332Z,27.95
2019-01-19T03:32:12.802Z,25.10
2019-01-19T03:34:38.763Z,30.55
2019-01-19T03:37:15.221Z,33.42
2019-01-19T03:39:57.352Z,28.80
2019-01-19T03:42:05.688Z,32.10
2019-01-19T03:44:34.568Z,36.50
2019-01-19T03:47:04.373Z,28.57
2019-01-19T03:49:36.308Z,29.48
2019-01-19T03:51:51.942Z,30.68
2019-01-19T03:54:05.919Z,29.07
2019-01-19T03:56:28.441Z,31.95
2019-01-19T03:58:42.742Z,28.62
2019-01-19T04:00:54.861Z,32.50
2019-01-19T04:03:41.572Z,30.37
2019-01-19T04:06:25.196Z,28.85
2019-01-19T04:09:04.674Z,27.10
2019-01-19T04:11:51.705Z,31.70
2019-01-19T04:14:37.144Z,35.20
2019-01-19T04:17:17.797Z,36.05
2019-01-19T04:19:33.548Z,35.95
2019-01-19T04:22:02.912Z,27.07
2019-01-19T04:24:30.780Z,33.05
2019-01-19T04:26:36.028Z,28.38
2019-01-19T04:28:37.868Z,29.60
2019-01-19T04:30:39.525Z,30.68
2019-01-19T04:32:41.681Z,31.48
2019-01-19T04:34:43.351Z,32.58
2019-01-19T04:36:45.182Z,27.65
2019-01-19T04:38:47.020Z,25.82
2019-01-19T04:40:48.912Z,35.05
2019-01-19T04:42:50.748Z,32.35
2019-01-19T04:44:52.406Z,33.90
2019-01-19T04:46:54.048Z,38.53
2019-01-19T04:48:55.780Z,43.85
2019-01-19T04:50:57.438Z,32.08
2019-01-19T04:52:59.080Z,33.85
2019-01-19T04:55:00.969Z,31.77
2019-01-19T04:57:02.605Z,29.48
2019-01-19T04:59:04.244Z,40.52
2019-01-19T05:01:05.888Z,45.58
2019-01-19T05:03:07.556Z,34.40
2019-01-19T05:05:09.221Z,31.12
2019-01-19T05:07:10.852Z,43.98
2019-01-19T05:09:12.479Z,33.53
2019-01-19T05:11:14.120Z,41.42
2019-01-19T05:13:15.756Z,35.95
2019-01-19T05:15:19.036Z,30.68
2019-01-19T05:17:20.680Z,34.10
2019-01-19T05:19:22.556Z,34.88
2019-01-19T05:21:24.399Z,34.23
2019-01-19T05:23:26.136Z,35.78
2019-01-19T05:25:27.789Z,37.80
2019-01-19T05:27:29.661Z,27.85
2019-01-19T05:29:31.300Z,28.32
2019-01-19T05:31:32.951Z,36.40
2019-01-19T05:33:34.832Z,33.05
2019-01-19T05:35:36.481Z,40.30
2019-01-19T05:37:38.164Z,32.23
2019-01-19T05:39:39.803Z,28.00
2019-01-19T05:41:41.693Z,36.90
2019-01-19T05:43:43.327Z,31.48
2019-01-19T05:45:44.989Z,38.30
2019-01-19T05:47:46.625Z,49.63
2019-01-19T05:49:48.264Z,47.08
2019-01-19T05:51:49.937Z,49.15
2019-01-19T05:53:51.573Z,85.42
2019-01-19T05:55:53.555Z,95.70
2019-01-19T05:57:55.194Z,85.75
2019-01-19T05:59:56.828Z,77.72
2019-01-19T06:01:58.613Z,63.73
2019-01-19T06:04:00.259Z,63.20
2019-01-19T06:06:02.806Z,44.20
2019-01-19T06:08:04.449Z,47.53
2019-01-19T06:10:08.252Z,39.95
2019-01-19T06:12:09.901Z,43.42
2019-01-19T06:14:11.541Z,31.77
2019-01-19T06:16:13.423Z,31.90
2019-01-19T06:18:15.060Z,30.50
2019-01-19T06:20:16.706Z,30.72
2019-01-19T06:22:18.460Z,27.98
2019-01-19T06:24:20.094Z,29.20
2019-01-19T06:26:21.745Z,31.35
2019-01-19T06:28:23.380Z,27.37
2019-01-19T06:30:25.020Z,32.70
2019-01-19T06:32:26.928Z,35.63
2019-01-19T06:34:28.566Z,38.67
2019-01-19T06:36:30.221Z,29.85
2019-01-19T06:38:31.860Z,29.85
2019-01-19T06:40:33.493Z,28.80
2019-01-19T06:42:35.145Z,31.77
2019-01-19T06:44:36.776Z,27.27
2019-01-19T06:46:38.428Z,28.38
2019-01-19T06:48:40.079Z,29.40
2019-01-19T06:50:41.719Z,27.62
2019-01-19T06:52:43.378Z,37.23
2019-01-19T06:54:45.016Z,23.75
2019-01-19T06:56:46.661Z,27.32
2019-01-19T06:58:48.296Z,42.85
2019-01-19T07:00:50.172Z,32.13
2019-01-19T07:02:51.824Z,29.98
2019-01-19T07:04:53.492Z,27.15
2019-01-19T07:07:02.335Z,30.57
2019-01-19T07:08:58.916Z,28.42
2019-01-19T07:11:00.560Z,28.45
2019-01-19T07:13:02.204Z,26.65
2019-01-19T07:15:04.828Z,27.52
2019-01-19T07:17:06.480Z,23.22
2019-01-19T07:19:08.119Z,25.55
2019-01-19T07:21:09.760Z,29.67
2019-01-19T07:23:11.404Z,25.70
2019-01-19T07:25:13.044Z,26.07
2019-01-19T07:27:14.690Z,35.88
2019-01-19T07:29:16.327Z,29.25
2019-01-19T07:31:17.968Z,28.07
2019-01-19T07:33:19.600Z,24.07
2019-01-19T07:35:21.246Z,28.87
2019-01-19T07:37:23.132Z,32.10
2019-01-19T07:39:25.013Z,30.70
2019-01-19T07:41:26.900Z,28.27
2019-01-19T07:43:29.179Z,22.77
2019-01-19T07:45:30.816Z,31.35
2019-01-19T07:47:32.759Z,20.62
2019-01-19T07:49:34.396Z,28.27
2019-01-19T07:51:36.047Z,25.77
2019-01-19T07:53:37.692Z,23.25
2019-01-19T07:55:39.332Z,26.45
2019-01-19T07:57:40.982Z,24.55
2019-01-19T07:59:42.620Z,30.43
2019-01-19T08:01:44.497Z,29.45
2019-01-19T08:03:46.149Z,30.70
2019-01-19T08:05:48.024Z,26.48
2019-01-19T08:07:49.676Z,38.98
2019-01-19T08:09:51.319Z,24.92
2019-01-19T08:11:52.977Z,26.42
2019-01-19T08:13:54.621Z,20.40
2019-01-19T08:15:56.265Z,28.85
2019-01-19T08:17:57.920Z,24.00
2019-01-19T08:19:59.796Z,25.92
2019-01-19T08:22:01.460Z,25.43
2019-01-19T08:24:03.100Z,23.30
2019-01-19T08:26:04.739Z,30.23
2019-01-19T08:28:06.388Z,23.95
2019-01-19T08:30:14.067Z,19.77
2019-01-19T08:32:15.720Z,24.47
2019-01-19T08:34:17.372Z,24.72
2019-01-19T08:36:19.221Z,20.70
2019-01-19T08:38:20.873Z,21.33
2019-01-19T08:40:24.834Z,20.35
2019-01-19T08:42:26.830Z,20.72
2019-01-19T08:44:28.701Z,20.88
2019-01-19T08:46:30.368Z,19.60
2019-01-19T08:48:32.020Z,21.87
2019-01-19T08:50:33.670Z,24.85
2019-01-19T08:52:35.348Z,24.67
2019-01-19T08:54:36.983Z,25.15
2019-01-19T08:56:38.643Z,20.40
2019-01-19T08:58:40.272Z,19.20
2019-01-19T09:00:41.912Z,13.10
2019-01-19T09:02:43.564Z,13.28
2019-01-19T09:04:45.648Z,9.13
2019-01-19T09:06:47.308Z,22.40
2019-01-19T09:08:48.957Z,16.37
2019-01-19T09:10:50.591Z,19.55
2019-01-19T09:12:52.275Z,19.67
2019-01-19T09:14:53.915Z,11.10
2019-01-19T09:16:55.567Z,20.75
2019-01-19T09:18:57.431Z,11.40
2019-01-19T09:20:59.076Z,9.60
2019-01-19T09:23:21.595Z,11.85
2019-01-19T09:25:23.334Z,11.65
2019-01-19T09:27:24.999Z,7.30
2019-01-19T09:29:26.894Z,13.38
2019-01-19T09:31:28.532Z,12.23
2019-01-19T09:33:30.420Z,6.97
2019-01-19T09:35:32.061Z,7.67
2019-01-19T09:37:40.661Z,12.27
2019-01-19T09:39:37.258Z,10.70
2019-01-19T09:41:39.133Z,9.80
2019-01-19T09:43:40.784Z,11.97
2019-01-19T09:45:42.419Z,8.00
2019-01-19T09:47:44.314Z,5.70
2019-01-19T09:49:45.940Z,9.17
2019-01-19T09:51:47.580Z,10.90
2019-01-19T09:53:49.236Z,15.23
2019-01-19T09:55:50.872Z,8.63
2019-01-19T09:57:54.117Z,7.47
2019-01-19T09:59:55.763Z,5.87
2019-01-19T10:01:57.403Z,6.97
2019-01-19T10:03:59.093Z,9.13
2019-01-19T10:06:00.715Z,8.83
2019-01-19T10:08:02.356Z,8.80
2019-01-19T10:10:04.407Z,13.33
2019-01-19T10:12:06.040Z,6.13
2019-01-19T10:14:07.693Z,5.50
2019-01-19T10:16:09.342Z,6.93
2019-01-19T10:18:11.393Z,5.50
2019-01-19T10:20:15.728Z,3.83
2019-01-19T10:22:17.392Z,6.60
2019-01-19T10:24:19.059Z,7.03
2019-01-19T10:26:20.693Z,5.73
2019-01-19T10:28:22.338Z,11.60
2019-01-19T10:30:24.652Z,8.10
2019-01-19T10:32:26.396Z,7.47
2019-01-19T10:34:28.027Z,7.13
2019-01-19T10:36:29.662Z,6.73
2019-01-19T10:38:31.303Z,7.70
2019-01-19T10:40:32.945Z,4.57
2019-01-19T10:42:34.592Z,8.70
2019-01-19T10:44:36.228Z,7.27
2019-01-19T10:46:37.872Z,9.97
2019-01-19T10:48:39.508Z,7.83
2019-01-19T10:50:41.151Z,7.17
2019-01-19T10:52:43.312Z,7.40
2019-01-19T10:54:45.185Z,7.03
2019-01-19T10:56:46.820Z,10.97
2019-01-19T10:58:48.483Z,7.13
2019-01-19T11:00:50.128Z,6.70
2019-01-19T11:02:52.103Z,7.53
2019-01-19T11:04:53.991Z,16.63
2019-01-19T11:06:55.626Z,8.83
2019-01-19T11:08:57.269Z,5.77
2019-01-19T11:10:58.909Z,8.30
2019-01-19T11:13:00.653Z,5.97
2019-01-19T11:15:02.504Z,11.00
2019-01-19T11:17:04.139Z,4.57
2019-01-19T11:19:05.775Z,8.87
2019-01-19T11:21:07.407Z,4.40
2019-01-19T11:23:09.039Z,2.50
2019-01-19T11:25:10.724Z,5.93
2019-01-19T11:27:12.356Z,7.47
2019-01-19T11:29:14.013Z,6.50
2019-01-19T11:31:15.893Z,11.10
2019-01-19T11:33:17.780Z,4.00
2019-01-19T11:35:19.418Z,8.63
2019-01-19T11:37:21.052Z,5.70
2019-01-19T11:39:22.711Z,16.00
2019-01-19T11:41:24.883Z,5.07
2019-01-19T11:43:26.532Z,9.33
2019-01-19T11:45:28.404Z,6.67
2019-01-19T11:47:30.041Z,7.33
2019-01-19T11:49:31.692Z,6.30
2019-01-19T11:51:33.337Z,6.03
2019-01-19T11:53:34.972Z,3.70
2019-01-19T11:55:36.607Z,7.23
2019-01-19T11:57:38.248Z,7.37
2019-01-19T11:59:39.899Z,4.70
2019-01-19T12:01:41.527Z,8.97
2019-01-19T12:03:43.175Z,3.73
2019-01-19T12:05:44.924Z,8.30
2019-01-19T12:07:46.561Z,9.97
2019-01-19T12:09:48.209Z,5.77
2019-01-19T12:11:50.084Z,4.60
2019-01-19T12:13:51.731Z,7.50
2019-01-19T12:15:53.360Z,6.57
2019-01-19T12:17:55.100Z,8.90
2019-01-19T12:19:56.747Z,13.20
2019-01-19T12:21:58.385Z,5.57
2019-01-19T12:24:00.031Z,5.90
2019-01-19T12:26:01.674Z,5.77
2019-01-19T12:28:03.392Z,7.10
2019-01-19T12:30:07.603Z,6.83
2019-01-19T12:32:09.241Z,6.77
2019-01-19T12:34:10.889Z,11.70
2019-01-19T12:36:12.512Z,5.07
2019-01-19T12:38:14.147Z,4.90
2019-01-19T12:40:17.440Z,8.60
2019-01-19T12:42:19.076Z,5.40
2019-01-19T12:44:20.740Z,8.87
2019-01-19T12:46:22.380Z,12.73
2019-01-19T12:48:24.028Z,6.33
2019-01-19T12:50:25.679Z,3.07
2019-01-19T12:52:27.317Z,5.87
2019-01-19T12:54:28.960Z,14.43
2019-01-19T12:56:30.604Z,10.73
2019-01-19T12:58:32.238Z,8.40
2019-01-19T13:00:33.889Z,6.60
2019-01-19T13:02:35.760Z,6.47
2019-01-19T13:04:37.421Z,6.27
2019-01-19T13:06:52.169Z,6.00
2019-01-19T13:08:54.024Z,8.30
2019-01-19T13:11:13.711Z,9.60
2019-01-19T13:13:18.708Z,7.53
2019-01-19T13:15:59.956Z,8.40
2019-01-19T13:18:27.247Z,7.27
2019-01-19T13:20:41.703Z,12.70
2019-01-19T13:23:13.888Z,8.23
2019-01-19T13:25:42.328Z,3.83
2019-01-19T13:28:30.375Z,7.57
2019-01-19T13:30:49.027Z,7.93
2019-01-19T13:33:23.240Z,11.43
2019-01-19T13:35:57.216Z,10.60
2019-01-19T13:38:19.651Z,8.17
2019-01-19T13:41:09.189Z,9.70
2019-01-19T13:43:36.082Z,8.20
2019-01-19T13:46:29.285Z,9.53
2019-01-19T13:49:14.459Z,8.70
2019-01-19T13:51:53.848Z,8.10
2019-01-19T13:54:36.851Z,12.13
2019-01-19T13:57:03.487Z,6.23
2019-01-19T13:59:15.832Z,9.57
2019-01-19T14:01:59.081Z,12.27
2019-01-19T14:04:32.640Z,8.37
2019-01-19T14:06:50.596Z,9.30
2019-01-19T14:09:30.223Z,10.20
2019-01-19T14:11:57.708Z,9.80
2019-01-19T14:14:38.716Z,11.73
2019-01-19T14:16:57.164Z,12.37
2019-01-19T14:19:30.863Z,12.53
2019-01-19T14:22:28.908Z,12.93
2019-01-19T14:25:08.230Z,12.83
2019-01-19T14:27:33.929Z,11.40
2019-01-19T14:30:09.036Z,13.30
2019-01-19T14:32:24.833Z,8.57
2019-01-19T14:35:07.955Z,13.83
2019-01-19T14:37:25.373Z,12.10
2019-01-19T14:40:05.659Z,9.80
2019-01-19T14:42:45.518Z,8.73
2019-01-19T14:45:09.219Z,8.40
2019-01-19T14:48:02.146Z,11.27
2019-01-19T14:50:41.056Z,15.70
2019-01-19T14:53:19.457Z,12.40
2019-01-19T14:55:43.387Z,12.43
2019-01-19T14:58:12.637Z,8.10
2019-01-19T15:00:42.768Z,11.30
2019-01-19T15:03:28.338Z,20.17
2019-01-19T15:06:15.369Z,21.00
2019-01-19T15:08:40.868Z,13.73
2019-01-19T15:11:20.744Z,18.40
2019-01-19T15:13:57.205Z,13.47
2019-01-19T15:16:43.937Z,13.63
2019-01-19T15:19:12.233Z,18.53
2019-01-19T15:21:40.745Z,11.83
2019-01-19T15:24:28.025Z,16.67
2019-01-19T15:26:53.507Z,15.00
2019-01-19T15:29:08.153Z,21.10
2019-01-19T15:31:19.009Z,25.47
2019-01-19T15:34:07.992Z,9.33
2019-01-19T15:36:26.576Z,16.63
2019-01-19T15:38:43.805Z,28.33
2019-01-19T15:41:33.140Z,25.20
2019-01-19T15:44:10.833Z,23.53
2019-01-19T15:46:41.168Z,29.87
2019-01-19T15:49:30.678Z,22.30
2019-01-19T15:51:55.873Z,30.17
2019-01-19T15:54:15.884Z,19.77
2019-01-19T15:56:45.901Z,23.93
2019-01-19T15:59:07.447Z,20.13
2019-01-19T16:01:33.912Z,22.93
2019-01-19T16:04:14.945Z,54.13
2019-01-19T16:06:49.928Z,25.47
2019-01-19T16:09:21.768Z,42.97
2019-01-19T16:11:42.800Z,33.20
2019-01-19T16:14:33.008Z,23.80
2019-01-19T16:17:25.824Z,25.62
2019-01-19T16:20:10.364Z,30.50
2019-01-19T16:22:21.516Z,22.52
2019-01-19T16:24:55.852Z,23.53
2019-01-19T16:27:23.288Z,23.30
2019-01-19T16:29:42.560Z,25.27
2019-01-19T16:32:12.660Z,27.05
2019-01-19T16:34:51.033Z,20.52
2019-01-19T16:37:34.512Z,24.23
2019-01-19T16:40:19.588Z,29.92
2019-01-19T16:42:43.905Z,33.25
2019-01-19T16:45:32.165Z,27.15
2019-01-19T16:47:57.808Z,32.63
2019-01-19T16:50:46.919Z,33.87
2019-01-19T16:53:12.157Z,33.13
2019-01-19T16:55:52.391Z,27.05
2019-01-19T16:58:34.731Z,30.12
2019-01-19T17:00:57.111Z,28.17
2019-01-19T17:03:29.769Z,32.78
2019-01-19T17:06:14.900Z,38.40
2019-01-19T17:08:38.144Z,33.73
2019-01-19T17:11:14.799Z,22.70
2019-01-19T17:13:59.046Z,27.30
2019-01-19T17:16:21.717Z,33.05
2019-01-19T17:18:47.678Z,24.80
2019-01-19T17:21:24.883Z,22.05
2019-01-19T17:23:45.711Z,26.15
2019-01-19T17:26:15.634Z,30.30
2019-01-19T17:28:43.771Z,21.97
2019-01-19T17:31:33.488Z,31.10
2019-01-19T17:34:08.027Z,25.17
2019-01-19T17:36:34.332Z,17.80
2019-01-19T17:38:49.680Z,26.12
2019-01-19T17:41:18.116Z,24.23
2019-01-19T17:43:52.877Z,25.17
2019-01-19T17:46:19.557Z,31.65
2019-01-19T17:48:37.115Z,20.40
2019-01-19T17:50:59.839Z,45.00
2019-01-19T17:53:23.868Z,30.48
2019-01-19T17:56:07.436Z,30.75
2019-01-19T17:58:57.196Z,40.08
2019-01-19T18:01:27.804Z,45.35
2019-01-19T18:04:00.781Z,50.40
2019-01-19T18:06:18.752Z,59.40
2019-01-19T18:08:40.532Z,46.68
2019-01-19T18:11:10.928Z,38.45
2019-01-19T18:13:40.544Z,61.75
2019-01-19T18:16:16.252Z,37.70
2019-01-19T18:18:24.423Z,39.23
2019-01-19T18:21:08.147Z,44.30
2019-01-19T18:23:39.213Z,50.63
2019-01-19T18:25:59.470Z,62.73
2019-01-19T18:28:31.545Z,55.48
2019-01-19T18:31:06.268Z,58.80
2019-01-19T18:33:36.160Z,54.85
2019-01-19T18:36:07.987Z,45.23
2019-01-19T18:38:27.468Z,49.50
2019-01-19T18:40:48.143Z,48.75
2019-01-19T18:43:11.504Z,48.35
2019-01-19T18:45:30.373Z,42.85
2019-01-19T18:48:04.074Z,49.53
2019-01-19T18:50:44.605Z,42.25
2019-01-19T18:53:10.375Z,50.17
2019-01-19T18:55:31.720Z,73.60
2019-01-19T18:58:03.860Z,80.00
2019-01-19T19:00:35.389Z,52.27
2019-01-19T19:02:48.651Z,53.90
2019-01-19T19:05:12.075Z,50.88
2019-01-19T19:07:39.244Z,56.92
2019-01-19T19:10:02.214Z,59.18
2019-01-19T19:12:43.259Z,59.95
2019-01-19T19:15:25.859Z,62.60
2019-01-19T19:18:01.650Z,58.25
2019-01-19T19:20:42.752Z,55.58
2019-01-19T19:23:32.212Z,56.02
2019-01-19T19:26:06.617Z,36.63
2019-01-19T19:29:04.623Z,37.85
2019-01-19T19:31:35.494Z,31.62
2019-01-19T19:33:52.691Z,35.90
2019-01-19T19:36:30.913Z,34.08
2019-01-19T19:38:56.803Z,32.28
2019-01-19T19:41:19.332Z,42.50
2019-01-19T19:43:31.888Z,43.15
2019-01-19T19:46:11.348Z,45.83
2019-01-19T19:48:32.955Z,41.85
2019-01-19T19:51:20.571Z,38.02
2019-01-19T19:53:22.225Z,39.27
2019-01-19T19:55:23.258Z,42.73
2019-01-19T19:57:24.908Z,40.50
2019-01-19T19:59:26.560Z,37.95
2019-01-19T20:01:28.221Z,52.33
2019-01-19T20:03:30.116Z,50.10
2019-01-19T20:05:31.776Z,32.78
2019-01-19T20:07:33.515Z,44.98
2019-01-19T20:09:35.143Z,37.93
2019-01-19T20:11:36.884Z,35.80
2019-01-19T20:13:38.780Z,45.03
2019-01-19T20:15:40.428Z,42.75
2019-01-19T20:17:42.071Z,43.38
2019-01-19T20:19:43.708Z,36.45
2019-01-19T20:21:45.399Z,37.33
2019-01-19T20:23:47.095Z,39.75
2019-01-19T20:25:48.737Z,40.17
2019-01-19T20:27:50.408Z,30.32
2019-01-19T20:29:52.300Z,42.98
2019-01-19T20:31:53.941Z,36.77
2019-01-19T20:33:55.815Z,39.80
2019-01-19T20:35:57.492Z,44.00
2019-01-19T20:37:59.146Z,38.92
2019-01-19T20:40:00.775Z,42.03
2019-01-19T20:42:02.655Z,48.83
2019-01-19T20:44:04.309Z,63.28
2019-01-19T20:46:05.953Z,68.72
2019-01-19T20:48:07.605Z,49.03
2019-01-19T20:50:09.504Z,48.17
2019-01-19T20:52:11.144Z,50.28
2019-01-19T20:54:12.792Z,76.33
2019-01-19T20:56:14.657Z,62.70
2019-01-19T20:58:16.304Z,80.62
2019-01-19T21:00:17.953Z,106.22
2019-01-19T21:02:19.823Z,169.90
2019-01-19T21:04:21.484Z,140.90
2019-01-19T21:06:23.124Z,78.40
2019-01-19T21:08:24.774Z,62.78
2019-01-19T21:10:31.779Z,52.95
2019-01-19T21:12:30.195Z,53.23
2019-01-19T21:14:31.840Z,55.20
2019-01-19T21:16:33.472Z,61.28
2019-01-19T21:18:35.123Z,53.20
2019-01-19T21:20:36.764Z,45.92
2019-01-19T21:22:38.640Z,63.60
2019-01-19T21:24:40.296Z,58.33
2019-01-19T21:26:41.924Z,54.30
2019-01-19T21:28:43.589Z,61.42
2019-01-19T21:30:45.216Z,58.92
2019-01-19T21:32:46.879Z,66.80
2019-01-19T21:34:48.528Z,53.83
2019-01-19T21:36:50.403Z,55.15
2019-01-19T21:38:52.046Z,45.48
2019-01-19T21:40:53.692Z,45.63
2019-01-19T21:42:55.337Z,47.55
2019-01-19T21:44:57.236Z,54.90
2019-01-19T21:46:58.871Z,45.95
2019-01-19T21:49:00.525Z,59.08
2019-01-19T21:51:02.163Z,56.13
2019-01-19T21:53:03.804Z,79.58
2019-01-19T21:55:06.107Z,66.35
2019-01-19T21:57:07.981Z,56.02
2019-01-19T21:59:09.628Z,61.90
2019-01-19T22:01:11.256Z,57.05
2019-01-19T22:03:12.892Z,51.40
2019-01-19T22:05:14.560Z,55.70
2019-01-19T22:07:16.200Z,48.95
2019-01-19T22:09:17.864Z,41.18
2019-01-19T22:11:19.488Z,42.23
2019-01-19T22:13:21.128Z,41.00
2019-01-19T22:15:22.785Z,44.33
2019-01-19T22:17:24.424Z,44.55
2019-01-19T22:19:26.076Z,40.48
2019-01-19T22:21:27.720Z,46.05
2019-01-19T22:23:29.364Z,49.10
2019-01-19T22:25:31.243Z,54.75
2019-01-19T22:27:33.325Z,59.38
2019-01-19T22:29:35.141Z,74.62
2019-01-19T22:31:37.013Z,78.37
2019-01-19T22:33:38.651Z,70.90
2019-01-19T22:35:40.403Z,53.85
2019-01-19T22:37:42.052Z,57.60
2019-01-19T22:39:43.720Z,49.63
2019-01-19T22:41:45.687Z,42.65
2019-01-19T22:43:47.333Z,46.02
2019-01-19T22:45:48.980Z,44.90
2019-01-19T22:47:50.615Z,47.62
2019-01-19T22:49:52.496Z,42.53
2019-01-19T22:51:54.134Z,45.58
2019-01-19T22:53:55.768Z,54.80
2019-01-19T22:55:57.416Z,40.00
2019-01-19T22:57:59.063Z,54.80
2019-01-19T23:00:00.719Z,55.92
2019-01-19T23:02:07.171Z,47.25
2019-01-19T23:04:08.825Z,56.80
2019-01-19T23:06:10.473Z,58.35
2019-01-19T23:08:12.157Z,53.85
2019-01-19T23:10:13.908Z,50.58
2019-01-19T23:12:15.552Z,46.58
2019-01-19T23:14:17.193Z,41.60
2019-01-19T23:16:18.836Z,46.80
2019-01-19T23:18:20.477Z,59.53
2019-01-19T23:20:22.122Z,46.05
2019-01-19T23:22:25.036Z,42.30
2019-01-19T23:24:26.683Z,39.80
2019-01-19T23:26:28.624Z,46.35
2019-01-19T23:28:30.500Z,40.70
2019-01-19T23:30:32.152Z,42.70
2019-01-19T23:32:33.788Z,44.53
2019-01-19T23:34:35.660Z,67.15
2019-01-19T23:36:37.552Z,51.05
2019-01-19T23:38:39.183Z,57.38
2019-01-19T23:40:41.071Z,59.42
2019-01-19T23:42:47.032Z,55.10
2019-01-19T23:44:46.248Z,58.78
2019-01-19T23:46:47.900Z,43.30
2019-01-19T23:48:49.771Z,40.95
2019-01-19T23:50:51.420Z,49.53
2019-01-19T23:52:53.060Z,54.80
2019-01-19T23:54:55.169Z,49.70
2019-01-19T23:56:56.808Z,64.40
2019-01-19T23:58:58.693Z,42.10
